Latest Weather Observations for Brisbane

IDQ60901

Issued at 6:21 pm EST Sunday 7 February 2016 (issued every 10 minutes, with the page automatically refreshed every 10 minutes)

About weather observations | Map of Brisbane area stations | Latest observations for Brisbane area | Other Formats
Station Details ID: 040913 Name: BRISBANE Lat: -27.48 Lon: 153.04 Height: 8.13 m
Data from the previous 72 hours. | See also: Recent months at Brisbane
Date/Time
EST
Tmp

°C
App
Tmp
°C
Dew
Point
°C
Rel
Hum
%
Delta-T

°C
Wind Press
QNH
hPa
Press
MSL
hPa
Rain
since
9 am
mm
Dir
 
Spd
km/h
Gust
km/h
Spd
kts
Gust
kts
07/06:00pm 25.4 25.6 16.8 59 5.3 SE 11 19 6 10 1013.3 1013.3 0.2
07/05:30pm 25.6 26.8 17.3 60 5.2 S 7 17 4 9 1013.1 1013.1 0.2
07/05:00pm 26.0 27.2 17.4 59 5.4 SE 7 19 4 10 1012.9 1012.9 0.2
07/04:30pm 26.3 27.7 17.9 60 5.3 SE 7 15 4 8 1012.6 1012.6 0.2
07/04:00pm 26.6 27.6 17.7 58 5.6 SE 9 15 5 8 1012.4 1012.4 0.2
07/03:30pm 26.5 27.1 17.8 58 5.5 SE 11 19 6 10 1012.3 1012.3 0.2
07/03:00pm 26.4 27.0 17.7 58 5.5 SE 11 28 6 15 1012.4 1012.4 0.2
07/02:30pm 26.8 27.2 18.1 59 5.5 SE 13 28 7 15 1012.7 1012.7 0.2
07/02:00pm 27.4 28.1 18.9 59 5.5 SE 13 24 7 13 1012.8 1012.8 0.2
07/01:30pm 27.3 28.0 18.9 60 5.4 SE 13 22 7 12 1012.8 1012.8 0.2
07/01:00pm 27.3 28.3 18.6 59 5.6 SE 11 22 6 12 1012.8 1012.8 0.2
07/12:30pm 27.8 28.4 18.5 57 5.9 SE 13 22 7 12 1012.9 1012.9 0.2
07/12:00pm 27.8 29.0 19.1 59 5.6 SSE 11 19 6 10 1012.9 1012.9 0.2
07/11:30am 27.4 29.8 19.7 63 5.0 S 6 17 3 9 1013.3 1013.3 0.2
07/11:00am 25.7 27.7 19.1 67 4.2 SSW 7 17 4 9 1013.4 1013.4 0.2
07/10:30am 25.2 26.0 18.2 65 4.4 SSW 11 20 6 11 1013.5 1013.5 0.2
07/10:00am 26.6 28.6 19.2 64 4.8 S 7 15 4 8 1013.5 1013.5 0.2
07/09:30am 25.6 27.3 18.5 65 4.5 S 7 15 4 8 1013.7 1013.7 0.2
07/09:00am 25.9 27.3 18.6 64 4.6 SSW 9 17 5 9 1013.7 1013.7 7.8
07/08:30am 25.7 27.9 19.3 67 4.1 S 6 9 3 5 1013.4 1013.4 7.8
07/08:00am 24.1 25.9 18.7 72 3.4 S 7 13 4 7 1013.5 1013.5 7.8
07/07:30am 23.8 26.0 19.1 75 3.0 SSW 6 11 3 6 1013.1 1013.1 7.8
07/07:00am 23.0 25.2 19.2 79 2.4 SW 6 13 3 7 1013.2 1013.2 7.8
07/06:30am 22.1 24.8 19.5 85 1.7 SW 4 13 2 7 1013.1 1013.1 7.8
07/06:00am 21.6 24.2 19.3 87 1.5 SW 4 13 2 7 1012.8 1012.8 7.8
07/05:30am 21.4 24.0 19.3 88 1.3 SW 4 9 2 5 1012.4 1012.4 7.8
07/05:00am 21.6 23.9 19.5 88 1.3 SW 6 11 3 6 1012.3 1012.3 7.8
07/04:30am 21.7 24.5 19.6 88 1.3 SW 4 13 2 7 1012.0 1012.0 7.8
07/04:00am 22.0 24.5 19.9 88 1.3 SW 6 7 3 4 1011.6 1011.6 7.8
07/03:30am 22.1 25.2 20.2 89 1.2 SW 4 7 2 4 1011.7 1011.7 7.8
07/03:00am 22.4 25.4 20.1 87 1.5 SW 4 7 2 4 1011.6 1011.6 7.8
07/02:30am 22.7 25.5 20.4 87 1.5 SSW 6 11 3 6 1011.6 1011.6 7.8
07/02:00am 22.6 26.2 20.5 88 1.4 SW 2 4 1 2 1011.5 1011.5 7.8
07/01:30am 22.5 26.1 20.6 89 1.2 S 2 7 1 4 1011.4 1011.4 7.8
07/01:00am 22.5 25.4 20.6 89 1.2 SSE 6 7 3 4 1011.4 1011.4 7.8
07/12:30am 22.5 25.4 20.6 89 1.2 SSE 6 9 3 5 1011.7 1011.7 7.8
07/12:00am 22.5 26.1 20.6 89 1.2 SSE 2 6 1 3 1012.0 1012.0 7.8
 
Date/Time
EST
Tmp

°C
App
Tmp
°C
Dew
Point
°C
Rel
Hum
%
Delta-T

°C
Wind Press
QNH
hPa
Press
MSL
hPa
Rain
since
9 am
mm
Dir
 
Spd
km/h
Gust
km/h
Spd
kts
Gust
kts
06/11:30pm 22.6 25.6 20.9 90 1.1 SSE 6 9 3 5 1012.5 1012.5 7.8
06/11:00pm 22.7 26.4 20.8 89 1.2 S 2 7 1 4 1012.8 1012.8 7.4
06/10:30pm 22.7 26.0 20.8 89 1.2 S 4 7 2 4 1013.2 1013.2 7.4
06/10:00pm 22.7 26.1 21.0 90 1.1 S 4 9 2 5 1013.4 1013.4 7.4
06/09:30pm 22.6 25.6 20.9 90 1.1 S 6 11 3 6 1013.3 1013.3 7.4
06/09:00pm 22.7 26.5 21.0 90 1.1 S 2 7 1 4 1012.8 1012.8 7.0
06/08:30pm 22.6 25.3 20.7 89 1.2 SE 7 15 4 8 1012.8 1012.8 7.0
06/08:00pm 22.8 26.4 21.3 91 1.0 SSE 4 9 2 5 1012.5 1012.5 6.6
06/07:30pm 22.8 25.8 21.3 91 1.0 SE 7 15 4 8 1011.9 1011.9 6.6
06/07:00pm 23.7 26.5 20.8 84 1.9 SSE 7 13 4 7 1011.5 1011.5 1.8
06/06:30pm 24.1 26.4 20.6 81 2.3 SE 9 20 5 11 1011.3 1011.3 1.8
06/06:00pm 23.8 25.6 20.3 81 2.3 SE 11 22 6 12 1010.7 1010.7 1.8
06/05:30pm 25.7 27.5 20.3 72 3.5 SE 11 22 6 12 1010.3 1010.2 1.8
06/05:00pm 25.8 28.1 20.6 73 3.4 ESE 9 20 5 11 1010.0 1009.9 1.8
06/04:30pm 25.4 26.7 20.2 73 3.4 SE 13 26 7 14 1009.7 1009.6 1.8
06/04:00pm 25.8 26.6 19.9 70 3.8 SE 15 30 8 16 1009.5 1009.4 1.8
06/03:30pm 27.6 28.3 19.7 62 5.1 SE 15 28 8 15 1009.3 1009.2 1.8
06/03:00pm 27.1 28.5 20.4 66 4.4 ESE 13 26 7 14 1009.3 1009.2 1.8
06/02:30pm 27.9 29.6 21.0 66 4.6 ESE 13 24 7 13 1009.4 1009.3 1.8
06/02:00pm 28.9 29.7 19.8 58 6.0 ESE 15 28 8 15 1009.4 1009.3 1.8
06/01:30pm 29.5 30.3 19.8 56 6.4 ESE 15 30 8 16 1009.6 1009.5 1.8
06/01:00pm 29.1 30.0 20.8 61 5.5 ESE 17 28 9 15 1009.8 1009.7 1.8
06/12:30pm 28.5 30.1 20.8 63 5.1 SE 13 26 7 14 1010.0 1009.9 1.8
06/12:00pm 27.2 28.6 20.3 66 4.5 ESE 13 22 7 12 1010.4 1010.4 1.8
06/11:30am 27.7 29.6 21.3 68 4.3 ESE 13 22 7 12 1010.7 1010.7 1.8
06/11:00am 26.2 29.3 22.1 78 2.7 SE 9 17 5 9 1011.1 1011.1 1.4
06/10:30am 25.0 26.8 21.1 79 2.6 SE 13 26 7 14 1011.3 1011.3 1.2
06/10:00am 25.7 29.0 22.6 83 2.1 SSE 9 20 5 11 1011.5 1011.5 1.2
06/09:30am 26.9 28.5 20.7 69 4.1 SE 13 28 7 15 1011.4 1011.4 0.0
06/09:00am 25.9 27.8 20.5 72 3.5 SE 11 24 6 13 1011.5 1011.5 1.2
06/08:30am 25.0 26.7 20.9 78 2.7 SE 13 20 7 11 1011.4 1011.4 1.2
06/08:00am 24.3 26.9 21.2 83 2.0 SSE 9 17 5 9 1011.4 1011.4 1.2
06/07:30am 23.2 26.0 20.9 87 1.5 SSE 7 15 4 8 1011.2 1011.2 1.2
06/07:00am 22.5 25.4 20.6 89 1.2 S 6 13 3 7 1010.9 1010.9 1.2
06/06:30am 22.1 24.6 20.2 89 1.2 SE 7 15 4 8 1010.9 1010.9 1.0
06/06:00am 22.8 24.7 19.8 83 1.9 SSE 9 17 5 9 1010.4 1010.4 0.4
06/05:30am 23.0 25.2 19.6 81 2.2 S 7 15 4 8 1009.7 1009.6 0.4
06/05:00am 23.0 24.8 19.6 81 2.2 SSE 9 24 5 13 1009.3 1009.2 0.4
06/04:30am 22.9 25.1 19.5 81 2.2 SSE 7 19 4 10 1009.0 1008.9 0.4
06/04:00am 22.7 24.9 19.5 82 2.0 SSE 7 17 4 9 1008.9 1008.8 0.4
06/03:30am 22.6 23.9 19.4 82 2.0 SE 11 22 6 12 1008.9 1008.8 0.4
06/03:00am 22.9 24.6 19.3 80 2.3 SE 9 17 5 9 1008.8 1008.7 0.4
06/02:30am 23.2 25.2 19.2 78 2.5 SE 7 13 4 7 1008.8 1008.7 0.4
06/02:00am 23.8 24.9 18.9 74 3.1 SSE 11 22 6 12 1009.1 1009.0 0.4
06/01:30am 23.7 25.4 18.6 73 3.2 SSE 7 17 4 9 1009.2 1009.1 0.4
06/01:00am 23.6 25.8 18.3 72 3.3 S 4 7 2 4 1009.3 1009.2 0.4
06/12:30am 23.7 25.9 18.4 72 3.3 SSE 4 7 2 4 1009.5 1009.4 0.4
06/12:00am 23.9 25.7 18.3 71 3.5 S 6 9 3 5 1009.7 1009.6 0.4
 
Date/Time
EST
Tmp

°C
App
Tmp
°C
Dew
Point
°C
Rel
Hum
%
Delta-T

°C
Wind Press
QNH
hPa
Press
MSL
hPa
Rain
since
9 am
mm
Dir
 
Spd
km/h
Gust
km/h
Spd
kts
Gust
kts
05/11:30pm 24.1 26.0 18.5 71 3.5 SSE 6 13 3 7 1010.3 1010.2 0.4
05/11:00pm 24.3 25.6 18.5 70 3.7 SSE 9 20 5 11 1010.7 1010.7 0.4
05/10:30pm 24.2 25.9 18.6 71 3.5 SSE 7 15 4 8 1010.9 1010.9 0.4
05/10:00pm 24.2 25.5 18.4 70 3.7 SSE 9 17 5 9 1011.0 1011.0 0.4
05/09:30pm 24.4 25.8 18.6 70 3.7 SE 9 19 5 10 1011.0 1011.0 0.4
05/09:00pm 24.6 25.9 18.5 69 3.9 SSE 9 19 5 10 1011.0 1011.0 0.4
05/08:30pm 24.8 25.2 19.0 70 3.7 SSE 15 22 8 12 1010.8 1010.8 0.4
05/08:00pm 24.8 26.1 19.4 72 3.5 SSE 11 22 6 12 1010.4 1010.4 0.4
05/07:30pm 24.6 26.2 19.9 75 3.0 SE 11 26 6 14 1009.9 1009.8 0.4
05/07:00pm 24.5 26.5 20.0 76 2.9 SE 9 20 5 11 1009.7 1009.6 0.4
05/06:30pm 23.8 25.9 20.1 80 2.4 SE 9 17 5 9 1009.2 1009.1 0.4
05/06:00pm 25.6 27.6 19.9 70 3.7 SE 9 19 5 10 1008.8 1008.7 0.4
05/05:30pm 25.3 27.7 20.8 76 3.0 SE 9 19 5 10 1008.4 1008.3 0.4
05/05:00pm 26.4 28.2 20.3 69 4.0 SE 11 22 6 12 1008.0 1007.9 0.4
05/04:30pm 26.3 28.2 20.6 71 3.7 ESE 11 20 6 11 1007.8 1007.7 0.4
05/04:00pm 25.7 28.2 21.1 76 3.0 ESE 9 15 5 8 1007.9 1007.8 0.4
05/03:30pm 26.9 29.7 20.5 68 4.2 SSE 6 11 3 6 1007.8 1007.7 0.4
05/03:00pm 26.8 29.9 21.1 71 3.8 S 6 11 3 6 1007.9 1007.8 0.4
05/02:30pm 26.5 28.3 20.3 68 4.1 SE 11 20 6 11 1008.2 1008.1 0.2
05/02:00pm 26.8 28.6 20.4 68 4.2 SSE 11 19 6 10 1008.5 1008.4 0.2
05/01:30pm 26.7 29.7 20.8 70 3.9 SSW 6 9 3 5 1008.6 1008.5 0.2
05/01:00pm 26.2 28.2 20.8 72 3.6 SE 11 24 6 13 1009.1 1009.0 0.2
05/12:30pm 26.8 30.4 21.3 72 3.7 S 4 13 2 7 1009.1 1009.0 0.2
05/12:00pm 26.3 29.9 21.3 74 3.3 SW 4 6 2 3 1009.4 1009.3 0.2
05/11:30am 26.6 29.9 20.7 70 3.9 S 4 9 2 5 1009.6 1009.5 0.0
05/11:00am 26.6 28.0 19.5 65 4.6 SE 11 22 6 12 1009.5 1009.4 0.0
05/10:30am 26.4 28.7 19.5 66 4.5 SSE 6 19 3 10 1009.6 1009.5 0.0
05/10:00am 26.4 28.7 19.5 66 4.5 S 6 13 3 7 1009.6 1009.5 0.0
05/09:30am 25.9 28.1 19.3 67 4.2 SSE 6 13 3 7 1009.4 1009.3 0.0
05/09:00am 25.8 28.6 19.7 69 4.0 S 4 9 2 5 1009.2 1009.1 -
05/08:30am 24.9 27.5 19.3 71 3.6 SSW 4 9 2 5 1009.0 1008.9 -
05/08:00am 24.5 26.7 19.3 73 3.3 SSW 6 13 3 7 1008.9 1008.8 -
05/07:30am 23.6 25.8 19.3 77 2.7 SW 6 13 3 7 1008.7 1008.6 -
05/07:00am 23.2 26.0 19.6 80 2.3 SW 4 7 2 4 1008.4 1008.3 -
05/06:30am 22.9 25.7 19.7 82 2.1 SW 4 9 2 5 1007.9 1007.8 -
05/06:00am 22.6 25.5 19.8 84 1.8 WSW 4 7 2 4 1007.5 1007.4 -
05/05:30am 22.4 25.3 19.8 85 1.7 WSW 4 9 2 5 1007.1 1007.0 -
05/05:00am 22.3 25.2 19.8 86 1.6 SW 4 11 2 6 1006.6 1006.5 -
05/04:30am 22.2 25.1 19.9 87 1.5 WSW 4 7 2 4 1006.5 1006.4 -
05/04:00am 22.1 25.3 19.8 87 1.5 WSW 2 7 1 4 1006.3 1006.2 -
05/03:30am 22.0 25.6 19.7 87 1.5 CALM 0 6 0 3 1006.4 1006.3 -
05/03:00am 21.9 24.8 19.8 88 1.3 SW 4 6 2 3 1006.4 1006.3 0.2
05/02:30am 21.8 25.1 19.9 89 1.2 WSW 2 4 1 2 1006.3 1006.2 -
05/02:00am 21.8 25.0 19.7 88 1.3 WSW 2 6 1 3 1006.6 1006.5 -
05/01:30am 21.9 24.7 19.6 87 1.5 WSW 4 7 2 4 1006.8 1006.7 -
05/01:00am 21.8 24.7 19.9 89 1.2 WSW 4 7 2 4 1007.3 1007.2 -
05/12:30am 21.9 24.5 20.0 89 1.2 W 6 9 3 5 1007.6 1007.5 -
05/12:00am 22.1 25.1 20.0 88 1.4 WSW 4 6 2 3 1008.0 1007.9 -
 
Date/Time
EST
Tmp

°C
App
Tmp
°C
Dew
Point
°C
Rel
Hum
%
Delta-T

°C
Wind Press
QNH
hPa
Press
MSL
hPa
Rain
since
9 am
mm
Dir
 
Spd
km/h
Gust
km/h
Spd
kts
Gust
kts
04/11:30pm 22.2 25.6 20.1 88 1.4 WSW 2 7 1 4 1008.3 1008.2 -
04/11:00pm 22.1 25.3 20.4 90 1.1 W 4 6 2 3 1008.7 1008.6 -
04/10:30pm 22.1 25.3 20.4 90 1.1 WSW 4 7 2 4 1008.8 1008.7 -
04/10:00pm 22.1 25.2 20.2 89 1.2 SW 4 6 2 3 1009.1 1009.0 -
04/09:30pm 22.1 24.7 20.0 88 1.3 WSW 6 9 3 5 1009.3 1009.2 -
04/09:00pm 22.4 25.8 20.1 87 1.5 SW 2 6 1 3 1009.5 1009.4 0.8
04/08:30pm 22.4 25.6 19.8 85 1.7 S 2 7 1 4 1009.1 1009.0 -
04/08:00pm 22.4 25.9 19.6 84 1.8 CALM 0 0 0 0 1009.1 1009.0 -
04/07:30pm 22.9 25.1 19.3 80 2.3 SSE 6 9 3 5 1008.7 1008.6 -
04/07:00pm 23.8 25.5 18.4 72 3.4 SE 7 13 4 7 1008.4 1008.3 -
04/06:30pm 24.2 25.6 17.9 68 3.9 SE 7 11 4 6 1007.8 1007.7 -

Latest Capital City Observations: Canberra | Sydney | Melbourne | Brisbane | Adelaide | Perth | Hobart | Darwin

Other Formats:

Comma delimited format used in spreadsheet applications
http://www.bom.gov.au/fwo/IDQ60901/IDQ60901.94576.axf

JavaScript Object Notation format (JSON) in row-major order
http://www.bom.gov.au/fwo/IDQ60901/IDQ60901.94576.json